Time;durP1;ratioP1;P1;durP2;ratioP2;P2;SDS_P1;SDS_P2;PMS_P1;PMS_P2;Temp;Humidity;BMP_temperature;BMP_pressure;BME280_temperature;BME280_humidity;BME280_pressure;Samples;Min_cycle;Max_cycle;Signal;HPM_P1;HPM_P2
2022/10/26 00:01:04;;;;;;;6.40;5.87;;;;;;;10.71;100.00;101292.91;5019901;28;20239;-52
2022/10/26 00:03:31;;;;;;;8.13;5.73;;;;;;;10.71;100.00;101290.28;5020014;28;20314;-54
2022/10/26 00:06:03;;;;;;;7.00;6.23;;;;;;;10.69;100.00;101302.50;5016457;28;20225;-54
2022/10/26 00:08:29;;;;;;;7.00;6.40;;;;;;;10.65;100.00;101304.22;5010953;28;20870;-55
2022/10/26 00:10:57;;;;;;;6.20;5.63;;;;;;;10.63;100.00;101308.56;5003402;28;20233;-53
2022/10/26 00:13:25;;;;;;;7.90;5.90;;;;;;;10.64;100.00;101291.09;5011147;28;20245;-53
2022/10/26 00:15:51;;;;;;;7.73;6.40;;;;;;;10.63;100.00;101290.19;5015863;28;20241;-52
2022/10/26 00:18:18;;;;;;;7.67;6.77;;;;;;;10.61;100.00;101291.94;5020426;28;20236;-53
2022/10/26 00:20:44;;;;;;;8.20;5.97;;;;;;;10.63;100.00;101299.81;5019983;28;20247;-53
2022/10/26 00:23:11;;;;;;;6.30;5.80;;;;;;;10.63;100.00;101295.44;5014224;28;20235;-53
2022/10/26 00:25:38;;;;;;;13.63;7.23;;;;;;;10.56;100.00;101301.53;5016185;28;20240;-52
2022/10/26 00:28:04;;;;;;;7.90;6.33;;;;;;;10.60;100.00;101297.16;4998398;28;20248;-55
2022/10/26 00:30:32;;;;;;;5.83;5.23;;;;;;;10.64;100.00;101306.84;5011250;28;20233;-52
2022/10/26 00:32:58;;;;;;;5.70;5.13;;;;;;;10.61;100.00;101317.34;5012282;28;20232;-52
2022/10/26 00:35:25;;;;;;;9.20;5.87;;;;;;;10.60;100.00;101315.56;5022439;28;20244;-52
2022/10/26 00:37:54;;;;;;;7.27;6.10;;;;;;;10.59;100.00;101319.06;4996299;28;20237;-53
2022/10/26 00:40:21;;;;;;;8.23;6.67;;;;;;;10.46;100.00;101318.97;4997048;28;20229;-54
2022/10/26 00:42:48;;;;;;;7.00;6.30;;;;;;;10.48;100.00;101321.59;4996434;28;20748;-53
2022/10/26 00:45:19;;;;;;;6.00;5.47;;;;;;;10.51;100.00;101321.63;5020694;28;20428;-56
2022/10/26 00:47:49;;;;;;;5.97;5.07;;;;;;;10.54;100.00;101318.16;5019245;28;20302;-54
2022/10/26 00:50:19;;;;;;;7.47;6.23;;;;;;;10.52;100.00;101326.00;5022664;28;20232;-53
2022/10/26 00:52:46;;;;;;;6.43;5.77;;;;;;;10.49;100.00;101321.63;5019318;28;20228;-55
2022/10/26 00:55:12;;;;;;;8.53;6.80;;;;;;;10.48;100.00;101321.59;5022128;28;20233;-52
2022/10/26 00:57:39;;;;;;;10.03;7.50;;;;;;;10.46;100.00;101321.59;5021549;28;20245;-54
2022/10/26 01:00:08;;;;;;;8.83;6.30;;;;;;;10.47;100.00;101311.97;5021106;28;20233;-52
2022/10/26 01:02:34;;;;;;;9.40;7.30;;;;;;;10.43;100.00;101318.06;5008816;28;20305;-53
2022/10/26 01:05:03;;;;;;;9.87;6.00;;;;;;;10.43;100.00;101307.56;5020405;28;20242;-52
2022/10/26 01:07:30;;;;;;;10.17;7.17;;;;;;;10.43;100.00;101310.19;5019495;28;20229;-53
2022/10/26 01:09:57;;;;;;;6.60;5.47;;;;;;;10.42;100.00;101311.91;5016114;28;20315;-52
2022/10/26 01:12:23;;;;;;;7.77;6.13;;;;;;;10.41;100.00;101304.91;5013458;28;20236;-52
2022/10/26 01:14:50;;;;;;;11.57;6.43;;;;;;;10.42;100.00;101311.03;5002113;28;20236;-54
2022/10/26 01:17:28;;;;;;;11.05;6.82;;;;;;;10.41;100.00;101304.91;5005401;28;20229;-53
2022/10/26 01:20:27;;;;;;;8.63;6.30;;;;;;;10.43;100.00;101303.19;5005353;28;20228;-54
2022/10/26 01:22:57;;;;;;;10.20;6.57;;;;;;;10.43;100.00;101299.69;5007431;28;20244;-52
2022/10/26 01:25:40;;;;;;;8.33;6.07;;;;;;;10.39;100.00;101300.50;5004667;28;20243;-52
2022/10/26 01:28:15;;;;;;;8.30;5.97;;;;;;;10.41;100.00;101291.78;5019765;28;20613;-53
2022/10/26 01:30:45;;;;;;;6.37;5.77;;;;;;;10.40;100.00;101292.66;5020404;28;20278;-54
2022/10/26 01:33:25;;;;;;;8.60;6.70;;;;;;;10.42;100.00;101296.16;5018439;28;20239;-54
2022/10/26 01:35:59;;;;;;;7.07;6.03;;;;;;;10.40;100.00;101292.66;5018025;28;20658;-53
2022/10/26 01:38:31;;;;;;;6.90;6.03;;;;;;;10.39;100.00;101290.91;5020242;28;20327;-53
2022/10/26 01:41:03;;;;;;;8.53;6.77;;;;;;;10.37;100.00;101297.88;5013369;28;20726;-54
2022/10/26 01:43:34;;;;;;;5.78;5.28;;;;;;;10.34;100.00;101292.59;5020012;28;20240;-52
2022/10/26 01:46:03;;;;;;;8.93;5.83;;;;;;;10.33;100.00;101298.72;5021081;28;20647;-52
2022/10/26 01:48:30;;;;;;;9.83;6.10;;;;;;;10.33;100.00;101285.59;5020811;28;20862;-52
2022/10/26 01:50:57;;;;;;;5.90;5.40;;;;;;;10.30;100.00;101288.19;5010798;28;20240;-53
2022/10/26 01:53:26;;;;;;;6.33;5.73;;;;;;;10.29;100.00;101294.31;5012311;28;20234;-52
2022/10/26 01:55:53;;;;;;;7.30;6.10;;;;;;;10.30;100.00;101285.56;5007156;28;20277;-52
2022/10/26 01:58:50;;;;;;;6.77;4.97;;;;;;;10.31;100.00;101281.19;5020188;28;20263;-52
2022/10/26 02:01:43;;;;;;;7.47;5.87;;;;;;;10.32;100.00;101282.94;4997069;28;20231;-55
2022/10/26 02:04:21;;;;;;;5.83;5.20;;;;;;;10.33;100.00;101277.72;5014474;28;20237;-53
2022/10/26 02:06:53;;;;;;;6.43;5.83;;;;;;;10.33;100.00;101280.34;5005978;28;20224;-52
2022/10/26 02:09:24;;;;;;;6.27;5.77;;;;;;;10.34;100.00;101276.84;5013075;28;20229;-54
2022/10/26 02:11:53;;;;;;;6.20;5.70;;;;;;;10.33;100.00;101275.09;5000683;28;20322;-52
2022/10/26 02:14:23;;;;;;;6.43;5.90;;;;;;;10.30;100.00;101275.06;5005389;28;20239;-53
2022/10/26 02:16:57;;;;;;;6.47;5.87;;;;;;;10.29;100.00;101273.31;5023896;28;20253;-52
2022/10/26 02:19:42;;;;;;;6.17;5.50;;;;;;;10.28;100.00;101271.53;5015477;28;20243;-53
2022/10/26 02:22:14;;;;;;;6.20;5.57;;;;;;;10.39;100.00;101266.38;5013154;28;20796;-53
2022/10/26 02:24:41;;;;;;;8.73;5.67;;;;;;;10.50;100.00;101257.75;5011946;28;20245;-53
2022/10/26 02:27:13;;;;;;;7.20;5.80;;;;;;;10.39;100.00;101269.00;5017813;28;20233;-52
2022/10/26 02:29:41;;;;;;;6.57;5.97;;;;;;;10.37;100.00;101266.38;5017772;28;20278;-53
2022/10/26 02:32:10;;;;;;;6.33;5.77;;;;;;;10.34;100.00;101261.09;5017551;28;20290;-53
2022/10/26 02:34:39;;;;;;;9.77;5.70;;;;;;;10.31;100.00;101266.31;5018914;28;20243;-53
2022/10/26 02:37:07;;;;;;;10.73;6.40;;;;;;;10.29;100.00;101262.81;5018480;28;21432;-52
2022/10/26 02:39:34;;;;;;;5.83;5.20;;;;;;;10.26;100.00;101270.66;5022906;28;20229;-53
2022/10/26 02:42:03;;;;;;;6.73;5.47;;;;;;;10.25;100.00;101271.50;5019302;28;20225;-53
2022/10/26 02:44:33;;;;;;;6.67;5.30;;;;;;;10.21;100.00;101267.06;5011695;28;20233;-52
2022/10/26 02:47:00;;;;;;;10.20;6.37;;;;;;;10.16;100.00;101274.03;5009530;28;20305;-51
2022/10/26 02:49:28;;;;;;;7.30;6.27;;;;;;;10.13;100.00;101274.00;4995512;28;20229;-52
2022/10/26 02:52:02;;;;;;;6.90;6.20;;;;;;;10.10;100.00;101273.97;5008164;28;20232;-53
2022/10/26 02:54:33;;;;;;;6.27;5.77;;;;;;;10.15;100.00;101282.78;5015820;28;20236;-52
2022/10/26 02:57:01;;;;;;;7.00;5.90;;;;;;;10.12;100.00;101274.88;5014075;28;20707;-54
2022/10/26 02:59:32;;;;;;;8.97;5.97;;;;;;;10.15;100.00;101282.78;5010288;28;20228;-53
2022/10/26 03:02:00;;;;;;;10.77;7.07;;;;;;;10.09;100.00;101277.47;5007524;28;20225;-53
2022/10/26 03:04:32;;;;;;;7.10;6.40;;;;;;;10.10;100.00;101273.97;5006250;28;20245;-52
2022/10/26 03:06:59;;;;;;;9.03;6.90;;;;;;;10.04;100.00;101280.91;5009574;28;20312;-51
2022/10/26 03:09:26;;;;;;;6.77;6.07;;;;;;;10.02;100.00;101280.00;5014381;28;20225;-53
2022/10/26 03:11:53;;;;;;;6.07;5.47;;;;;;;10.04;100.00;101278.28;5017804;28;20229;-53
2022/10/26 03:14:20;;;;;;;6.30;5.80;;;;;;;10.00;100.00;101283.47;5020229;28;20753;-53
2022/10/26 03:16:46;;;;;;;6.53;5.80;;;;;;;10.01;100.00;101283.50;5020394;28;20243;-51
2022/10/26 03:19:13;;;;;;;6.87;6.27;;;;;;;10.04;100.00;101282.66;5022219;28;20233;-53
2022/10/26 03:21:41;;;;;;;6.53;5.90;;;;;;;10.01;100.00;101277.38;5018611;28;20439;-53
2022/10/26 03:24:08;;;;;;;7.07;6.07;;;;;;;9.89;100.00;101278.13;5021752;28;20244;-52
2022/10/26 03:26:35;;;;;;;7.07;6.37;;;;;;;9.85;100.00;101276.34;5022491;28;20945;-53
2022/10/26 03:29:02;;;;;;;5.97;5.40;;;;;;;9.86;100.00;101282.44;5021750;28;20228;-53
2022/10/26 03:31:29;;;;;;;8.53;6.33;;;;;;;9.82;100.00;101285.91;5021297;28;20224;-53
2022/10/26 03:33:55;;;;;;;9.73;6.30;;;;;;;9.80;100.00;101286.78;5010986;28;20256;-54
2022/10/26 03:36:22;;;;;;;11.80;7.43;;;;;;;9.84;100.00;101287.69;5014430;28;20236;-54
2022/10/26 03:38:50;;;;;;;9.70;6.03;;;;;;;9.84;100.00;101278.94;5020339;28;20254;-52
2022/10/26 03:41:17;;;;;;;6.23;5.50;;;;;;;9.78;100.00;101280.63;5014551;28;20591;-54
2022/10/26 03:43:44;;;;;;;7.47;5.37;;;;;;;9.75;100.00;101284.97;5020999;28;20263;-52
2022/10/26 03:46:11;;;;;;;6.70;4.80;;;;;;;9.70;100.00;101281.41;5015619;28;20236;-53
2022/10/26 03:48:39;;;;;;;10.63;6.63;;;;;;;9.60;100.00;101279.56;5018950;28;20326;-52
2022/10/26 03:51:06;;;;;;;7.07;5.47;;;;;;;9.72;100.00;101277.06;5009818;28;20247;-52
2022/10/26 03:53:33;;;;;;;6.23;5.47;;;;;;;9.71;100.00;101283.16;5004648;28;20241;-52
2022/10/26 03:56:02;;;;;;;8.07;5.90;;;;;;;9.65;100.00;101281.38;5010200;28;20905;-54
2022/10/26 03:58:29;;;;;;;5.30;4.80;;;;;;;9.70;100.00;101282.28;4983450;28;20281;-52
2022/10/26 04:00:55;;;;;;;8.63;5.67;;;;;;;9.69;100.00;101277.06;4995063;28;20258;-53
2022/10/26 04:03:22;;;;;;;7.87;6.37;;;;;;;9.70;100.00;101276.19;4995485;28;20229;-53
2022/10/26 04:05:49;;;;;;;6.00;5.33;;;;;;;9.73;100.00;101281.47;5017168;28;20226;-54
2022/10/26 04:08:16;;;;;;;5.67;5.17;;;;;;;9.68;100.00;101283.13;5010816;28;20315;-56
2022/10/26 04:10:46;;;;;;;5.83;5.23;;;;;;;9.66;100.00;101282.25;5015860;28;20331;-52
2022/10/26 04:13:14;;;;;;;6.17;5.57;;;;;;;9.66;100.00;101280.50;4991980;28;20237;-52
2022/10/26 04:15:42;;;;;;;7.13;5.37;;;;;;;9.60;100.00;101282.19;5011978;28;20243;-53
2022/10/26 04:18:11;;;;;;;8.00;5.87;;;;;;;9.60;100.00;101284.78;5010003;28;20236;-53
2022/10/26 04:20:40;;;;;;;6.70;6.10;;;;;;;9.57;100.00;101283.88;5008137;28;20236;-53
2022/10/26 04:23:11;;;;;;;9.10;5.60;;;;;;;9.58;100.00;101287.38;5016675;28;20259;-53
2022/10/26 04:25:38;;;;;;;6.17;5.67;;;;;;;9.60;100.00;101277.81;5013232;28;20868;-53
2022/10/26 04:28:06;;;;;;;6.43;5.70;;;;;;;9.61;100.00;101286.53;5012813;28;20727;-52
2022/10/26 04:30:35;;;;;;;10.20;5.43;;;;;;;9.61;100.00;101281.31;5011968;28;20248;-54
2022/10/26 04:33:02;;;;;;;11.50;5.63;;;;;;;9.59;100.00;101288.28;5016743;28;20260;-53
2022/10/26 04:35:29;;;;;;;8.17;6.30;;;;;;;9.57;100.00;101286.50;5017989;28;20302;-53
2022/10/26 04:37:59;;;;;;;6.87;5.27;;;;;;;9.53;100.00;101286.47;5005689;28;20742;-53
2022/10/26 04:40:26;;;;;;;8.43;6.50;;;;;;;9.50;100.00;101282.06;5000094;28;20229;-53
2022/10/26 04:42:53;;;;;;;7.53;6.23;;;;;;;9.54;100.00;101289.09;5013534;28;20244;-54
2022/10/26 04:45:21;;;;;;;7.00;6.37;;;;;;;9.52;100.00;101287.34;5005371;28;20228;-53
2022/10/26 04:47:59;;;;;;;6.43;5.47;;;;;;;9.54;100.00;101286.47;5016273;28;20794;-54
2022/10/26 04:50:26;;;;;;;8.13;6.10;;;;;;;9.55;100.00;101292.63;5016064;28;20229;-53
2022/10/26 04:52:53;;;;;;;7.43;5.63;;;;;;;9.49;100.00;101287.28;4994719;28;20816;-54
2022/10/26 04:55:20;;;;;;;6.70;6.00;;;;;;;9.46;100.00;101288.13;4997788;28;20808;-53
2022/10/26 04:57:47;;;;;;;7.03;6.43;;;;;;;9.39;100.00;101288.91;4989769;28;20932;-54
2022/10/26 05:00:14;;;;;;;10.57;6.37;;;;;;;9.45;100.00;101286.38;5010301;28;20240;-53
2022/10/26 05:02:41;;;;;;;7.00;6.30;;;;;;;9.43;100.00;101285.47;5020299;28;20256;-53
2022/10/26 05:05:10;;;;;;;7.37;6.67;;;;;;;9.48;100.00;101280.28;5020748;28;20224;-53
2022/10/26 05:07:37;;;;;;;9.47;6.83;;;;;;;9.44;100.00;101286.34;5018096;28;20301;-53
2022/10/26 05:10:04;;;;;;;9.93;7.13;;;;;;;9.42;100.00;101281.09;5011623;28;20416;-53
2022/10/26 05:12:31;;;;;;;8.17;5.73;;;;;;;9.39;100.00;101278.44;5020430;28;20235;-53
2022/10/26 05:14:58;;;;;;;7.27;6.43;;;;;;;9.36;100.00;101281.00;5009992;28;20614;-53
2022/10/26 05:17:25;;;;;;;12.13;7.27;;;;;;;9.36;100.00;101281.00;5013717;28;20281;-56
2022/10/26 05:19:54;;;;;;;7.60;6.00;;;;;;;9.37;100.00;101284.50;5006235;28;20323;-54
2022/10/26 05:22:27;;;;;;;9.40;6.63;;;;;;;9.38;100.00;101288.91;5018163;28;20276;-52
2022/10/26 05:24:54;;;;;;;8.57;6.90;;;;;;;9.41;100.00;101284.59;4999220;28;20225;-53
2022/10/26 05:27:21;;;;;;;8.90;7.60;;;;;;;9.37;100.00;101281.88;5008114;28;20241;-53
2022/10/26 05:29:48;;;;;;;10.67;7.50;;;;;;;9.44;100.00;101288.97;4993083;28;20236;-53
2022/10/26 05:32:15;;;;;;;7.57;6.70;;;;;;;9.46;100.00;101287.25;5020945;28;20609;-54
2022/10/26 05:34:42;;;;;;;8.70;6.30;;;;;;;9.43;100.00;101287.22;5016240;28;20236;-51
2022/10/26 05:37:10;;;;;;;8.87;6.47;;;;;;;9.38;100.00;101279.28;5007087;28;20235;-53
2022/10/26 05:39:38;;;;;;;10.60;7.20;;;;;;;9.36;100.00;101281.00;5004699;28;20247;-52
2022/10/26 05:42:05;;;;;;;9.50;6.33;;;;;;;9.39;100.00;101286.28;5018742;28;20242;-52
2022/10/26 05:44:32;;;;;;;7.57;6.67;;;;;;;9.40;100.00;101288.03;5025333;28;20765;-52
2022/10/26 05:46:59;;;;;;;14.20;6.67;;;;;;;9.39;100.00;101296.78;5016117;28;20237;-52
2022/10/26 05:49:26;;;;;;;9.87;7.03;;;;;;;9.38;100.00;101291.53;5014063;28;20260;-52
2022/10/26 05:51:53;;;;;;;8.27;6.73;;;;;;;9.44;100.00;101284.63;4998334;28;20237;-53
2022/10/26 05:54:20;;;;;;;6.97;6.27;;;;;;;9.49;100.00;101298.66;5003225;28;20742;-52
2022/10/26 05:56:49;;;;;;;8.03;7.27;;;;;;;9.45;100.00;101301.22;5013718;28;20245;-52
2022/10/26 05:59:16;;;;;;;7.57;6.80;;;;;;;9.45;100.00;101302.09;5024192;28;20247;-52
2022/10/26 06:02:00;;;;;;;9.40;7.20;;;;;;;9.44;100.00;101302.06;5019443;28;20239;-54
2022/10/26 06:04:34;;;;;;;6.23;5.43;;;;;;;10.09;100.00;101296.69;5008322;28;20291;-53
2022/10/26 06:07:02;;;;;;;10.97;7.73;;;;;;;10.25;100.00;101300.38;5009584;28;20329;-53
2022/10/26 06:09:32;;;;;;;9.53;6.47;;;;;;;10.52;100.00;101299.75;5013595;28;20236;-53
2022/10/26 06:12:01;;;;;;;7.90;5.80;;;;;;;10.65;100.00;101308.59;5018015;28;20232;-55
2022/10/26 06:14:29;;;;;;;8.70;6.10;;;;;;;10.65;100.00;101306.84;4999981;28;20840;-53
2022/10/26 06:17:05;;;;;;;6.63;5.90;;;;;;;10.60;100.00;101305.06;4993205;28;20233;-53
2022/10/26 06:19:46;;;;;;;8.03;5.87;;;;;;;10.47;100.00;101309.34;5003314;28;20232;-53
2022/10/26 06:22:22;;;;;;;7.13;5.53;;;;;;;10.30;100.00;101310.94;5007853;28;20236;-53
2022/10/26 06:24:56;;;;;;;5.93;5.23;;;;;;;10.20;100.00;101309.91;5009966;28;20933;-54
2022/10/26 06:27:30;;;;;;;6.50;5.50;;;;;;;10.37;100.00;101305.75;5014245;28;20286;-51
2022/10/26 06:30:00;;;;;;;6.37;5.77;;;;;;;10.18;100.00;101317.78;5008723;28;20281;-52
2022/10/26 06:32:27;;;;;;;6.33;5.57;;;;;;;10.04;100.00;101324.66;5006968;28;20232;-52
2022/10/26 06:35:02;;;;;;;6.03;5.07;;;;;;;9.94;100.00;101328.03;5014929;28;20236;-53
2022/10/26 06:37:29;;;;;;;5.63;5.10;;;;;;;9.87;100.00;101327.06;5013893;28;20327;-52
2022/10/26 06:39:57;;;;;;;7.50;6.70;;;;;;;9.81;100.00;101321.75;5012945;28;20225;-54
2022/10/26 06:42:26;;;;;;;5.83;5.07;;;;;;;9.81;100.00;101327.00;5011170;28;20729;-53
2022/10/26 06:44:54;;;;;;;6.03;5.43;;;;;;;9.79;100.00;101329.63;5009067;28;20364;-53
2022/10/26 06:47:25;;;;;;;9.00;6.03;;;;;;;9.79;100.00;101320.84;4996516;28;20226;-52
2022/10/26 06:49:59;;;;;;;7.23;6.20;;;;;;;9.89;100.00;101325.34;4992150;28;20233;-53
2022/10/26 06:52:29;;;;;;;8.30;7.47;;;;;;;9.88;100.00;101327.94;4998590;28;20237;-52
2022/10/26 06:54:57;;;;;;;6.77;5.80;;;;;;;9.87;100.00;101327.06;5004851;28;20721;-55
2022/10/26 06:57:30;;;;;;;6.10;5.60;;;;;;;9.86;100.00;101325.28;5019225;28;20758;-51
2022/10/26 06:59:59;;;;;;;8.40;6.53;;;;;;;9.87;100.00;101326.19;5016643;28;20230;-53
2022/10/26 07:02:26;;;;;;;9.17;6.80;;;;;;;9.92;100.00;101330.63;5023036;28;20833;-52
2022/10/26 07:04:53;;;;;;;7.97;6.67;;;;;;;9.95;100.00;101333.28;5001185;28;20233;-53
2022/10/26 07:07:21;;;;;;;13.77;6.17;;;;;;;10.02;100.00;101326.34;5014363;28;20942;-53
2022/10/26 07:09:48;;;;;;;9.97;6.73;;;;;;;10.50;100.00;101331.25;5019035;28;20233;-53
2022/10/26 07:12:15;;;;;;;7.93;6.33;;;;;;;10.42;100.00;101327.66;5019365;28;20228;-51
2022/10/26 07:14:43;;;;;;;8.43;6.63;;;;;;;10.44;100.00;101333.81;5018860;28;20224;-52
2022/10/26 07:17:11;;;;;;;9.37;6.40;;;;;;;10.44;100.00;101328.56;5023199;28;20514;-53
2022/10/26 07:19:39;;;;;;;7.00;6.30;;;;;;;10.46;100.00;101321.59;5018971;28;20241;-55
2022/10/26 07:22:06;;;;;;;9.40;5.97;;;;;;;10.50;100.00;101331.25;5020369;28;20255;-52
2022/10/26 07:24:33;;;;;;;8.93;7.10;;;;;;;10.62;100.00;101329.59;5004561;28;20315;-52
2022/10/26 07:27:00;;;;;;;8.40;6.50;;;;;;;10.74;100.00;101333.22;5023022;28;20259;-52
2022/10/26 07:29:27;;;;;;;7.43;5.18;;;;;;;11.25;100.00;101332.66;5013798;28;20240;-53
2022/10/26 07:31:55;;;;;;;9.35;6.50;;;;;;;11.40;100.00;101338.00;5022991;28;20307;-52
2022/10/26 07:34:22;;;;;;;9.10;6.17;;;;;;;11.40;100.00;101338.00;5023690;28;20236;-53
2022/10/26 07:36:52;;;;;;;8.53;5.43;;;;;;;11.82;100.00;101342.56;5012360;28;20280;-53
2022/10/26 07:39:19;;;;;;;9.47;6.93;;;;;;;11.55;100.00;101342.44;5005767;28;20221;-53
2022/10/26 07:41:46;;;;;;;9.30;5.90;;;;;;;11.97;100.00;101335.63;5003987;28;20314;-52
2022/10/26 07:44:13;;;;;;;6.32;5.60;;;;;;;12.14;100.00;101347.06;5018250;28;20810;-52
2022/10/26 07:46:40;;;;;;;7.20;5.97;;;;;;;11.93;100.00;101340.91;5021822;28;20332;-53
2022/10/26 07:49:08;;;;;;;10.87;7.50;;;;;;;11.55;100.00;101343.34;5019760;28;20389;-53
2022/10/26 07:51:35;;;;;;;9.57;6.25;;;;;;;11.82;100.00;101339.06;5021937;28;20320;-52
2022/10/26 07:54:01;;;;;;;9.70;6.80;;;;;;;11.82;100.00;101339.06;5015608;28;20240;-52
2022/10/26 07:56:28;;;;;;;7.78;7.00;;;;;;;11.99;100.00;101339.16;5012190;28;20247;-52
2022/10/26 07:58:56;;;;;;;7.15;6.45;;;;;;;11.99;100.00;101341.78;5003538;28;20726;-53
2022/10/26 08:01:24;;;;;;;6.20;5.60;;;;;;;12.17;100.00;101329.53;5015015;28;20231;-52
2022/10/26 08:03:52;;;;;;;9.23;5.88;;;;;;;12.13;100.00;101337.44;5020181;28;20229;-52
2022/10/26 08:06:21;;;;;;;6.75;5.90;;;;;;;12.37;100.00;101337.47;5021991;28;20733;-53
2022/10/26 08:08:49;;;;;;;7.25;6.55;;;;;;;12.29;100.00;101333.09;5021581;28;20354;-53
2022/10/26 08:11:16;;;;;;;6.95;6.28;;;;;;;12.27;100.00;101335.72;5022795;28;20282;-52
2022/10/26 08:13:43;;;;;;;7.47;6.25;;;;;;;-145.23;100.00;58621.06;5004710;28;20236;-52
2022/10/26 08:16:10;;;;;;;5.68;5.18;;;;;;;-145.23;100.00;58621.06;4985932;28;20755;-52
2022/10/26 08:18:37;;;;;;;9.40;6.32;;;;;;;-145.23;100.00;58621.06;5007865;28;20235;-52
2022/10/26 08:21:06;;;;;;;9.50;6.43;;;;;;;-145.23;100.00;58621.06;5011906;28;20228;-53
2022/10/26 08:23:34;;;;;;;7.53;6.07;;;;;;;-145.23;100.00;58621.06;5019676;28;20323;-54
2022/10/26 08:26:01;;;;;;;8.75;6.45;;;;;;;-145.23;100.00;58621.06;5020536;28;20275;-52
2022/10/26 08:28:29;;;;;;;7.40;5.50;;;;;;;-145.23;100.00;58621.06;5022637;28;20279;-52
2022/10/26 08:30:56;;;;;;;11.85;7.90;;;;;;;-145.23;100.00;58621.06;5017856;28;20260;-52
2022/10/26 08:33:24;;;;;;;8.80;6.20;;;;;;;-145.23;100.00;58621.06;5016758;28;20236;-52
2022/10/26 08:35:55;;;;;;;6.15;5.55;;;;;;;-145.23;100.00;58621.06;5019013;28;20234;-53
2022/10/26 08:38:22;;;;;;;6.47;5.35;;;;;;;-145.23;100.00;58621.06;5020382;28;20728;-54
2022/10/26 08:40:51;;;;;;;7.93;5.90;;;;;;;-145.23;100.00;58621.06;5002215;28;20319;-53
2022/10/26 08:43:23;;;;;;;9.02;6.38;;;;;;;-145.23;100.00;58621.06;5018704;28;20236;-51
2022/10/26 08:45:53;;;;;;;8.93;5.65;;;;;;;-145.23;100.00;58621.06;4993650;28;20233;-52
2022/10/26 08:48:23;;;;;;;8.60;7.45;;;;;;;-145.23;100.00;58621.06;5001815;28;20241;-52
2022/10/26 08:50:52;;;;;;;8.02;6.05;;;;;;;-145.23;100.00;58621.06;5018323;28;20225;-53
2022/10/26 08:53:22;;;;;;;6.60;5.90;;;;;;;-145.23;100.00;58621.06;5005502;28;20332;-52
2022/10/26 08:55:53;;;;;;;9.07;6.25;;;;;;;-145.23;100.00;58621.06;5017976;28;20267;-54
2022/10/26 08:58:22;;;;;;;13.20;7.38;;;;;;;-145.23;100.00;58621.06;5011424;28;20301;-52
2022/10/26 09:00:50;;;;;;;9.07;6.03;;;;;;;-145.23;100.00;58621.06;5020501;28;20235;-51
2022/10/26 09:03:18;;;;;;;7.78;6.40;;;;;;;-145.23;100.00;58621.06;5021999;28;21189;-53
2022/10/26 09:05:59;;;;;;;6.53;5.57;;;;;;;-145.23;100.00;58621.06;5011177;28;20803;-52
2022/10/26 09:08:34;;;;;;;7.35;6.45;;;;;;;-145.23;100.00;58621.06;5002431;28;20278;-52
2022/10/26 09:11:08;;;;;;;10.13;5.93;;;;;;;-145.23;100.00;58621.06;4999918;28;20252;-52
2022/10/26 09:13:46;;;;;;;5.68;5.10;;;;;;;-145.23;100.00;58621.06;4997615;28;20654;-52
2022/10/26 09:16:22;;;;;;;7.10;5.50;;;;;;;-145.23;100.00;58621.06;5013594;28;20240;-53
2022/10/26 09:18:55;;;;;;;11.65;7.15;;;;;;;-145.23;100.00;58621.06;5018155;28;20233;-53
2022/10/26 09:21:33;;;;;;;7.15;5.65;;;;;;;-145.23;100.00;58621.06;5018021;28;22366;-52
2022/10/26 09:24:05;;;;;;;6.40;5.50;;;;;;;-145.23;100.00;58621.06;5006009;28;20229;-52
2022/10/26 09:26:38;;;;;;;11.43;6.07;;;;;;;-145.23;100.00;58621.06;5006391;28;20620;-53
2022/10/26 09:29:07;;;;;;;7.05;5.10;;;;;;;-145.23;100.00;58621.06;5005266;28;21008;-54
2022/10/26 09:31:39;;;;;;;5.88;5.28;;;;;;;-145.23;100.00;58621.06;5007561;28;20244;-53
2022/10/26 09:34:07;;;;;;;9.20;6.72;;;;;;;-145.23;100.00;58621.06;4995778;28;20500;-53
2022/10/26 09:36:35;;;;;;;7.15;5.32;;;;;;;-145.23;100.00;58621.06;4992394;28;20233;-52
2022/10/26 09:39:04;;;;;;;6.72;4.78;;;;;;;-145.23;100.00;58621.06;5014030;28;20231;-53
2022/10/26 09:41:37;;;;;;;5.70;5.15;;;;;;;-145.23;100.00;58621.06;5008631;28;20233;-52
2022/10/26 09:44:08;;;;;;;7.38;4.70;;;;;;;-145.23;100.00;58621.06;5013513;28;20339;-52
2022/10/26 09:46:46;;;;;;;7.90;5.50;;;;;;;-145.23;100.00;58621.06;5004164;28;20234;-52
2022/10/26 09:49:15;;;;;;;5.72;5.13;;;;;;;-145.23;100.00;58621.06;5022214;28;20243;-52
2022/10/26 09:51:43;;;;;;;6.05;5.32;;;;;;;-145.23;100.00;58621.06;5012410;28;20239;-53
2022/10/26 09:54:15;;;;;;;7.97;4.47;;;;;;;-145.23;100.00;58621.06;5020098;28;20290;-53
2022/10/26 09:56:45;;;;;;;5.88;4.28;;;;;;;-145.23;100.00;58621.06;5015322;28;20649;-53
2022/10/26 09:59:14;;;;;;;6.15;3.92;;;;;;;-145.23;100.00;58621.06;5020373;28;20247;-53
2022/10/26 10:01:41;;;;;;;4.90;3.95;;;;;;;-145.23;100.00;58621.06;5009224;28;20775;-53
2022/10/26 10:04:11;;;;;;;4.75;4.03;;;;;;;-145.23;100.00;58621.06;5022531;28;20229;-53
2022/10/26 10:06:37;;;;;;;5.25;3.85;;;;;;;-145.23;100.00;58621.06;5015334;28;20267;-52
2022/10/26 10:09:09;;;;;;;7.85;3.35;;;;;;;-145.23;100.00;58621.06;5008812;28;20233;-51
2022/10/26 10:11:40;;;;;;;5.57;4.03;;;;;;;-145.23;100.00;58621.06;5011425;28;20869;-54
2022/10/26 10:14:09;;;;;;;9.73;4.55;;;;;;;-145.23;100.00;58621.06;5021104;28;20267;-52
2022/10/26 10:16:36;;;;;;;3.70;3.40;;;;;;;-145.23;100.00;58621.06;5012921;28;20711;-51
2022/10/26 10:19:02;;;;;;;6.03;3.55;;;;;;;-145.23;100.00;58621.06;5020432;28;20240;-52
2022/10/26 10:21:35;;;;;;;5.03;3.22;;;;;;;-145.23;100.00;58621.06;5020923;28;20233;-53
2022/10/26 10:24:01;;;;;;;6.45;3.83;;;;;;;-145.23;100.00;58621.06;5021067;28;20282;-52
2022/10/26 10:26:28;;;;;;;5.60;3.58;;;;;;;-145.23;100.00;58621.06;5023090;28;20232;-52
2022/10/26 10:28:59;;;;;;;4.45;2.85;;;;;;;-145.23;100.00;58621.06;5024767;28;20239;-51
2022/10/26 10:31:32;;;;;;;5.38;3.83;;;;;;;-145.23;100.00;58621.06;5007962;28;20241;-52
2022/10/26 10:33:59;;;;;;;9.93;3.45;;;;;;;-145.23;100.00;58621.06;5019749;28;20233;-52
2022/10/26 10:36:28;;;;;;;5.45;3.50;;;;;;;-145.23;100.00;58621.06;5012726;28;21006;-51
2022/10/26 10:38:55;;;;;;;3.63;3.05;;;;;;;-145.23;100.00;58621.06;5003810;28;20261;-51
2022/10/26 10:41:25;;;;;;;6.15;3.60;;;;;;;-145.23;100.00;58621.06;5005790;28;20229;-52
2022/10/26 10:43:54;;;;;;;3.78;3.22;;;;;;;-145.23;100.00;58621.06;5016422;28;20255;-52
2022/10/26 10:46:23;;;;;;;3.45;3.15;;;;;;;-145.23;100.00;58621.06;5025838;28;20243;-52
2022/10/26 10:48:55;;;;;;;4.05;3.00;;;;;;;-145.23;100.00;58621.06;5006365;28;20233;-53
2022/10/26 10:51:23;;;;;;;4.70;2.97;;;;;;;-145.23;100.00;58621.06;5007260;28;20232;-51
2022/10/26 10:53:51;;;;;;;5.05;3.70;;;;;;;-145.23;100.00;58621.06;5022750;28;20240;-52
2022/10/26 10:56:29;;;;;;;4.95;3.92;;;;;;;-145.23;100.00;58621.06;5005227;28;20237;-53
2022/10/26 10:59:06;;;;;;;4.30;3.70;;;;;;;-145.23;100.00;58621.06;5017234;28;20233;-52
2022/10/26 11:01:39;;;;;;;3.58;3.20;;;;;;;-145.23;100.00;58621.06;5023280;28;20638;-52
2022/10/26 11:04:21;;;;;;;3.38;3.05;;;;;;;-145.23;100.00;58621.06;5022115;28;20247;-53
2022/10/26 11:06:48;;;;;;;6.97;3.42;;;;;;;-145.23;100.00;58621.06;5025090;28;20225;-53
2022/10/26 11:09:16;;;;;;;4.00;2.92;;;;;;;-145.23;100.00;58621.06;5024668;28;20236;-52
2022/10/26 11:11:45;;;;;;;3.45;2.80;;;;;;;-145.23;100.00;58621.06;5024700;28;20343;-52
2022/10/26 11:14:15;;;;;;;4.43;3.58;;;;;;;-145.23;100.00;58621.06;5021355;28;20608;-52
2022/10/26 11:16:44;;;;;;;3.38;2.90;;;;;;;-145.23;100.00;58621.06;5011281;28;20232;-51
2022/10/26 11:19:18;;;;;;;3.22;2.92;;;;;;;-145.23;100.00;58621.06;5015527;28;20234;-52
2022/10/26 11:21:48;;;;;;;5.63;3.60;;;;;;;-145.23;100.00;58621.06;5014870;28;20287;-52
2022/10/26 11:24:18;;;;;;;4.80;3.95;;;;;;;-145.23;100.00;58621.06;5022409;28;22024;-53
2022/10/26 11:26:48;;;;;;;5.38;3.45;;;;;;;-145.23;100.00;58621.06;5009084;28;20240;-52